sensor_id;sensor_type;location;lat;lon;timestamp;pressure;altitude;pressure_sealevel;temperature;humidity
28588;BME280;15787;49.662;10.162;2022-07-29T00:02:01;98903.50;;;21.24;61.30
28588;BME280;15787;49.662;10.162;2022-07-29T00:04:29;98901.78;;;21.43;60.76
28588;BME280;15787;49.662;10.162;2022-07-29T00:06:59;98894.69;;;21.17;62.09
28588;BME280;15787;49.662;10.162;2022-07-29T00:09:26;98891.63;;;21.26;61.91
28588;BME280;15787;49.662;10.162;2022-07-29T00:11:57;98889.75;;;21.12;62.70
28588;BME280;15787;49.662;10.162;2022-07-29T00:14:26;98889.63;;;21.01;63.41
28588;BME280;15787;49.662;10.162;2022-07-29T00:16:54;98900.13;;;20.89;64.00
28588;BME280;15787;49.662;10.162;2022-07-29T00:19:22;98904.75;;;20.87;64.40
28588;BME280;15787;49.662;10.162;2022-07-29T00:21:50;98913.75;;;20.85;64.27
28588;BME280;15787;49.662;10.162;2022-07-29T00:24:20;98907.25;;;21.10;61.70
28588;BME280;15787;49.662;10.162;2022-07-29T00:26:47;98910.53;;;21.03;61.69
28588;BME280;15787;49.662;10.162;2022-07-29T00:29:15;98918.28;;;21.03;62.16
28588;BME280;15787;49.662;10.162;2022-07-29T00:32:00;98914.47;;;21.06;62.24
28588;BME280;15787;49.662;10.162;2022-07-29T00:34:28;98914.78;;;21.13;61.56
28588;BME280;15787;49.662;10.162;2022-07-29T00:37:13;98924.94;;;20.94;61.52
28588;BME280;15787;49.662;10.162;2022-07-29T00:39:42;98921.53;;;20.85;61.78
28588;BME280;15787;49.662;10.162;2022-07-29T00:42:10;98908.41;;;20.93;61.38
28588;BME280;15787;49.662;10.162;2022-07-29T00:44:39;98919.94;;;20.27;63.28
28588;BME280;15787;49.662;10.162;2022-07-29T00:47:08;98917.03;;;20.72;62.49
28588;BME280;15787;49.662;10.162;2022-07-29T00:49:38;98905.38;;;20.39;63.82
28588;BME280;15787;49.662;10.162;2022-07-29T00:52:07;98913.38;;;20.66;62.73
28588;BME280;15787;49.662;10.162;2022-07-29T00:54:37;98914.09;;;20.61;62.27
28588;BME280;15787;49.662;10.162;2022-07-29T00:57:12;98904.31;;;20.62;62.72
28588;BME280;15787;49.662;10.162;2022-07-29T00:59:40;98887.16;;;20.46;62.60
28588;BME280;15787;49.662;10.162;2022-07-29T01:02:08;98891.69;;;20.12;63.64
28588;BME280;15787;49.662;10.162;2022-07-29T01:04:36;98886.44;;;20.25;64.54
28588;BME280;15787;49.662;10.162;2022-07-29T01:07:04;98886.94;;;19.78;65.92
28588;BME280;15787;49.662;10.162;2022-07-29T01:09:33;98897.28;;;20.06;66.22
28588;BME280;15787;49.662;10.162;2022-07-29T01:12:17;98886.00;;;19.66;66.95
28588;BME280;15787;49.662;10.162;2022-07-29T01:14:46;98885.84;;;19.95;65.99
28588;BME280;15787;49.662;10.162;2022-07-29T01:17:21;98869.09;;;19.72;65.99
28588;BME280;15787;49.662;10.162;2022-07-29T01:19:55;98889.91;;;19.48;66.59
28588;BME280;15787;49.662;10.162;2022-07-29T01:22:49;98890.19;;;19.50;67.04
28588;BME280;15787;49.662;10.162;2022-07-29T01:25:42;98877.31;;;19.49;67.70
28588;BME280;15787;49.662;10.162;2022-07-29T01:28:37;98893.41;;;19.23;68.29
28588;BME280;15787;49.662;10.162;2022-07-29T01:31:10;98878.56;;;19.28;68.19
28588;BME280;15787;49.662;10.162;2022-07-29T01:33:57;98874.78;;;18.97;68.86
28588;BME280;15787;49.662;10.162;2022-07-29T01:36:31;98876.53;;;18.94;69.06
28588;BME280;15787;49.662;10.162;2022-07-29T01:39:06;98861.88;;;18.96;68.98
28588;BME280;15787;49.662;10.162;2022-07-29T01:41:37;98863.22;;;19.00;68.46
28588;BME280;15787;49.662;10.162;2022-07-29T01:44:13;98859.59;;;18.79;68.86
28588;BME280;15787;49.662;10.162;2022-07-29T01:46:49;98865.47;;;18.76;68.71
28588;BME280;15787;49.662;10.162;2022-07-29T01:49:21;98861.63;;;18.79;68.90
28588;BME280;15787;49.662;10.162;2022-07-29T01:51:54;98872.75;;;18.82;69.20
28588;BME280;15787;49.662;10.162;2022-07-29T01:54:28;98868.84;;;18.80;70.31
28588;BME280;15787;49.662;10.162;2022-07-29T01:56:58;98873.56;;;18.54;70.85
28588;BME280;15787;49.662;10.162;2022-07-29T01:59:29;98868.09;;;18.65;70.36
28588;BME280;15787;49.662;10.162;2022-07-29T02:01:58;98864.22;;;18.62;70.63
28588;BME280;15787;49.662;10.162;2022-07-29T02:04:27;98865.97;;;18.60;70.47
28588;BME280;15787;49.662;10.162;2022-07-29T02:07:00;98870.06;;;18.59;70.88
28588;BME280;15787;49.662;10.162;2022-07-29T02:09:30;98875.91;;;18.26;71.60
28588;BME280;15787;49.662;10.162;2022-07-29T02:12:00;98872.19;;;18.05;72.73
28588;BME280;15787;49.662;10.162;2022-07-29T02:14:36;98868.41;;;18.08;72.72
28588;BME280;15787;49.662;10.162;2022-07-29T02:17:05;98867.88;;;17.81;73.52
28588;BME280;15787;49.662;10.162;2022-07-29T02:19:34;98874.72;;;18.18;72.29
28588;BME280;15787;49.662;10.162;2022-07-29T02:22:05;98869.19;;;18.09;72.52
28588;BME280;15787;49.662;10.162;2022-07-29T02:24:35;98861.78;;;18.26;72.51
28588;BME280;15787;49.662;10.162;2022-07-29T02:27:04;98858.06;;;17.91;73.26
28588;BME280;15787;49.662;10.162;2022-07-29T02:29:35;98865.47;;;18.03;74.06
28588;BME280;15787;49.662;10.162;2022-07-29T02:32:06;98874.53;;;18.07;73.44
28588;BME280;15787;49.662;10.162;2022-07-29T02:34:35;98873.94;;;18.03;73.61
28588;BME280;15787;49.662;10.162;2022-07-29T02:37:05;98867.44;;;18.11;73.65
28588;BME280;15787;49.662;10.162;2022-07-29T02:39:37;98864.31;;;17.95;73.85
28588;BME280;15787;49.662;10.162;2022-07-29T02:42:08;98859.16;;;17.55;74.61
28588;BME280;15787;49.662;10.162;2022-07-29T02:44:39;98866.75;;;18.02;73.97
28588;BME280;15787;49.662;10.162;2022-07-29T02:47:10;98870.34;;;18.17;73.23
28588;BME280;15787;49.662;10.162;2022-07-29T02:49:43;98870.84;;;18.30;72.85
28588;BME280;15787;49.662;10.162;2022-07-29T02:52:18;98875.22;;;18.16;72.19
28588;BME280;15787;49.662;10.162;2022-07-29T02:54:52;98874.16;;;18.14;72.55
28588;BME280;15787;49.662;10.162;2022-07-29T02:57:24;98866.34;;;18.23;72.19
28588;BME280;15787;49.662;10.162;2022-07-29T02:59:58;98874.34;;;18.25;72.31
28588;BME280;15787;49.662;10.162;2022-07-29T03:02:27;98861.00;;;18.11;73.61
28588;BME280;15787;49.662;10.162;2022-07-29T03:04:57;98865.47;;;17.88;74.03
28588;BME280;15787;49.662;10.162;2022-07-29T03:07:26;98862.63;;;18.03;73.89
28588;BME280;15787;49.662;10.162;2022-07-29T03:09:55;98870.75;;;18.10;73.65
28588;BME280;15787;49.662;10.162;2022-07-29T03:12:24;98867.41;;;17.97;73.90
28588;BME280;15787;49.662;10.162;2022-07-29T03:14:54;98874.94;;;18.00;74.16
28588;BME280;15787;49.662;10.162;2022-07-29T03:17:24;98864.72;;;18.02;74.60
28588;BME280;15787;49.662;10.162;2022-07-29T03:19:53;98869.97;;;17.95;74.53
28588;BME280;15787;49.662;10.162;2022-07-29T03:22:21;98864.59;;;17.82;74.68
28588;BME280;15787;49.662;10.162;2022-07-29T03:24:49;98866.63;;;17.82;74.54
28588;BME280;15787;49.662;10.162;2022-07-29T03:27:17;98863.19;;;17.78;75.39
28588;BME280;15787;49.662;10.162;2022-07-29T03:29:44;98873.53;;;17.81;75.44
28588;BME280;15787;49.662;10.162;2022-07-29T03:32:16;98869.44;;;17.82;76.01
28588;BME280;15787;49.662;10.162;2022-07-29T03:34:52;98867.13;;;17.95;75.54
28588;BME280;15787;49.662;10.162;2022-07-29T03:37:20;98870.03;;;17.86;75.79
28588;BME280;15787;49.662;10.162;2022-07-29T03:39:49;98859.28;;;17.75;76.04
28588;BME280;15787;49.662;10.162;2022-07-29T03:42:19;98872.28;;;17.82;76.32
28588;BME280;15787;49.662;10.162;2022-07-29T03:44:47;98869.38;;;18.20;76.21
28588;BME280;15787;49.662;10.162;2022-07-29T03:47:19;98868.09;;;17.92;76.29
28588;BME280;15787;49.662;10.162;2022-07-29T03:50:12;98865.22;;;17.77;76.94
28588;BME280;15787;49.662;10.162;2022-07-29T03:52:42;98867.50;;;17.88;76.49
28588;BME280;15787;49.662;10.162;2022-07-29T03:55:11;98873.19;;;18.02;76.00
28588;BME280;15787;49.662;10.162;2022-07-29T03:57:39;98872.88;;;18.00;76.17
28588;BME280;15787;49.662;10.162;2022-07-29T04:00:08;98878.03;;;18.02;75.94
28588;BME280;15787;49.662;10.162;2022-07-29T04:02:38;98874.94;;;18.00;76.30
28588;BME280;15787;49.662;10.162;2022-07-29T04:05:12;98879.00;;;17.99;75.68
28588;BME280;15787;49.662;10.162;2022-07-29T04:07:43;98879.81;;;18.14;75.51
28588;BME280;15787;49.662;10.162;2022-07-29T04:10:11;98882.03;;;17.95;75.88
28588;BME280;15787;49.662;10.162;2022-07-29T04:12:38;98882.44;;;18.17;75.46
28588;BME280;15787;49.662;10.162;2022-07-29T04:15:07;98874.94;;;18.29;75.15
28588;BME280;15787;49.662;10.162;2022-07-29T04:17:35;98879.59;;;18.03;76.54
28588;BME280;15787;49.662;10.162;2022-07-29T04:20:04;98881.44;;;18.20;76.34
28588;BME280;15787;49.662;10.162;2022-07-29T04:22:33;98879.69;;;18.23;75.71
28588;BME280;15787;49.662;10.162;2022-07-29T04:25:01;98882.34;;;18.26;75.51
28588;BME280;15787;49.662;10.162;2022-07-29T04:27:30;98875.50;;;18.33;75.25
28588;BME280;15787;49.662;10.162;2022-07-29T04:29:58;98887.09;;;18.20;75.58
28588;BME280;15787;49.662;10.162;2022-07-29T04:32:26;98878.06;;;18.16;75.61
28588;BME280;15787;49.662;10.162;2022-07-29T04:34:53;98872.00;;;18.23;75.11
28588;BME280;15787;49.662;10.162;2022-07-29T04:37:21;98881.56;;;17.97;75.82
28588;BME280;15787;49.662;10.162;2022-07-29T04:39:50;98882.34;;;18.12;76.04
28588;BME280;15787;49.662;10.162;2022-07-29T04:42:18;98892.56;;;18.24;74.85
28588;BME280;15787;49.662;10.162;2022-07-29T04:44:53;98881.66;;;18.17;74.83
28588;BME280;15787;49.662;10.162;2022-07-29T04:47:21;98882.41;;;18.03;75.87
28588;BME280;15787;49.662;10.162;2022-07-29T04:49:49;98883.69;;;18.02;76.30
28588;BME280;15787;49.662;10.162;2022-07-29T04:52:17;98874.03;;;17.79;77.27
28588;BME280;15787;49.662;10.162;2022-07-29T04:54:44;98877.94;;;17.96;77.09
28588;BME280;15787;49.662;10.162;2022-07-29T04:57:14;98878.03;;;18.02;76.62
28588;BME280;15787;49.662;10.162;2022-07-29T04:59:41;98874.44;;;18.16;76.57
28588;BME280;15787;49.662;10.162;2022-07-29T05:02:10;98881.56;;;17.97;76.10
28588;BME280;15787;49.662;10.162;2022-07-29T05:04:38;98878.28;;;17.75;76.43
28588;BME280;15787;49.662;10.162;2022-07-29T05:07:05;98879.00;;;17.84;76.86
28588;BME280;15787;49.662;10.162;2022-07-29T05:09:33;98880.75;;;17.82;76.83
28588;BME280;15787;49.662;10.162;2022-07-29T05:12:01;98884.34;;;17.82;76.91
28588;BME280;15787;49.662;10.162;2022-07-29T05:14:30;98895.56;;;18.20;76.21
28588;BME280;15787;49.662;10.162;2022-07-29T05:16:58;98895.78;;;18.31;75.64
28588;BME280;15787;49.662;10.162;2022-07-29T05:19:26;98896.94;;;17.96;76.13
28588;BME280;15787;49.662;10.162;2022-07-29T05:21:54;98893.97;;;17.52;77.74
28588;BME280;15787;49.662;10.162;2022-07-29T05:24:21;98892.75;;;17.91;76.25
28588;BME280;15787;49.662;10.162;2022-07-29T05:26:49;98900.47;;;18.20;75.98
28588;BME280;15787;49.662;10.162;2022-07-29T05:29:17;98902.13;;;18.41;75.68
28588;BME280;15787;49.662;10.162;2022-07-29T05:32:06;98906.00;;;18.44;76.01
28588;BME280;15787;49.662;10.162;2022-07-29T05:34:34;98917.56;;;18.55;74.61
28588;BME280;15787;49.662;10.162;2022-07-29T05:37:15;98911.09;;;18.69;73.84
28588;BME280;15787;49.662;10.162;2022-07-29T05:39:44;98909.56;;;18.68;73.16
28588;BME280;15787;49.662;10.162;2022-07-29T05:42:16;98910.03;;;18.81;72.43
28588;BME280;15787;49.662;10.162;2022-07-29T05:44:44;98910.41;;;18.88;70.20
28588;BME280;15787;49.662;10.162;2022-07-29T05:47:13;98905.41;;;18.98;68.71
28588;BME280;15787;49.662;10.162;2022-07-29T05:49:41;98903.06;;;18.97;68.66
28588;BME280;15787;49.662;10.162;2022-07-29T05:52:08;98904.88;;;19.14;69.00
28588;BME280;15787;49.662;10.162;2022-07-29T05:54:36;98908.13;;;18.92;70.02
28588;BME280;15787;49.662;10.162;2022-07-29T05:57:04;98904.38;;;18.81;71.10
28588;BME280;15787;49.662;10.162;2022-07-29T05:59:35;98910.56;;;19.00;71.77
28588;BME280;15787;49.662;10.162;2022-07-29T06:02:03;98909.66;;;19.08;72.16
28588;BME280;15787;49.662;10.162;2022-07-29T06:04:33;98910.91;;;19.22;71.95
28588;BME280;15787;49.662;10.162;2022-07-29T06:07:01;98915.19;;;19.52;70.79
28588;BME280;15787;49.662;10.162;2022-07-29T06:09:29;98907.53;;;19.58;69.91
28588;BME280;15787;49.662;10.162;2022-07-29T06:11:57;98910.88;;;19.77;67.83
28588;BME280;15787;49.662;10.162;2022-07-29T06:14:25;98916.69;;;19.68;68.13
28588;BME280;15787;49.662;10.162;2022-07-29T06:16:55;98918.03;;;19.72;66.89
28588;BME280;15787;49.662;10.162;2022-07-29T06:19:22;98920.91;;;19.98;66.50
28588;BME280;15787;49.662;10.162;2022-07-29T06:21:51;98914.97;;;20.22;66.28
28588;BME280;15787;49.662;10.162;2022-07-29T06:24:19;98919.78;;;20.36;64.89
28588;BME280;15787;49.662;10.162;2022-07-29T06:26:47;98924.84;;;20.52;64.01
28588;BME280;15787;49.662;10.162;2022-07-29T06:29:15;98915.03;;;20.78;63.14
28588;BME280;15787;49.662;10.162;2022-07-29T06:31:43;98919.44;;;20.85;62.40
28588;BME280;15787;49.662;10.162;2022-07-29T06:34:11;98909.00;;;21.02;62.24
28588;BME280;15787;49.662;10.162;2022-07-29T06:36:39;98904.16;;;21.08;60.96
28588;BME280;15787;49.662;10.162;2022-07-29T06:39:09;98911.06;;;21.38;60.84
28588;BME280;15787;49.662;10.162;2022-07-29T06:41:37;98913.44;;;21.51;60.84
28588;BME280;15787;49.662;10.162;2022-07-29T06:44:08;98908.59;;;21.63;60.63
28588;BME280;15787;49.662;10.162;2022-07-29T06:46:37;98909.81;;;21.98;59.10
28588;BME280;15787;49.662;10.162;2022-07-29T06:49:05;98904.44;;;22.12;60.67
28588;BME280;15787;49.662;10.162;2022-07-29T06:51:33;98906.50;;;22.22;60.64
28588;BME280;15787;49.662;10.162;2022-07-29T06:54:02;98912.47;;;22.35;59.47
28588;BME280;15787;49.662;10.162;2022-07-29T06:56:33;98915.91;;;22.73;58.60
28588;BME280;15787;49.662;10.162;2022-07-29T06:59:06;98917.66;;;22.53;58.76
28588;BME280;15787;49.662;10.162;2022-07-29T07:01:35;98914.34;;;22.88;58.77
28588;BME280;15787;49.662;10.162;2022-07-29T07:04:03;98907.59;;;22.97;58.13
28588;BME280;15787;49.662;10.162;2022-07-29T07:06:31;98903.44;;;23.20;57.09
28588;BME280;15787;49.662;10.162;2022-07-29T07:08:59;98906.50;;;23.44;55.87
28588;BME280;15787;49.662;10.162;2022-07-29T07:11:27;98909.53;;;23.74;55.93
28588;BME280;15787;49.662;10.162;2022-07-29T07:13:56;98906.31;;;24.00;54.85
28588;BME280;15787;49.662;10.162;2022-07-29T07:16:29;98912.75;;;24.11;55.03
28588;BME280;15787;49.662;10.162;2022-07-29T07:18:58;98914.41;;;24.36;54.21
28588;BME280;15787;49.662;10.162;2022-07-29T07:21:26;98917.91;;;24.53;54.45
28588;BME280;15787;49.662;10.162;2022-07-29T07:23:57;98918.97;;;24.91;53.50
28588;BME280;15787;49.662;10.162;2022-07-29T07:26:25;98910.88;;;24.95;53.20
28588;BME280;15787;49.662;10.162;2022-07-29T07:28:53;98906.00;;;25.14;53.02
28588;BME280;15787;49.662;10.162;2022-07-29T07:31:22;98907.97;;;25.55;52.45
28588;BME280;15787;49.662;10.162;2022-07-29T07:33:50;98901.13;;;25.82;52.41
28588;BME280;15787;49.662;10.162;2022-07-29T07:36:20;98908.56;;;25.91;52.05
28588;BME280;15787;49.662;10.162;2022-07-29T07:38:47;98904.09;;;25.95;52.18
28588;BME280;15787;49.662;10.162;2022-07-29T07:41:15;98911.84;;;26.38;52.03
28588;BME280;15787;49.662;10.162;2022-07-29T07:43:43;98905.47;;;26.63;51.20
28588;BME280;15787;49.662;10.162;2022-07-29T07:46:11;98898.72;;;26.79;50.90
28588;BME280;15787;49.662;10.162;2022-07-29T07:48:43;98903.06;;;26.99;50.92
28588;BME280;15787;49.662;10.162;2022-07-29T07:51:11;98900.75;;;27.11;50.04
28588;BME280;15787;49.662;10.162;2022-07-29T07:53:39;98894.44;;;27.44;49.15
28588;BME280;15787;49.662;10.162;2022-07-29T07:56:07;98900.50;;;27.67;49.80
28588;BME280;15787;49.662;10.162;2022-07-29T07:58:37;98898.63;;;27.95;48.72
28588;BME280;15787;49.662;10.162;2022-07-29T08:01:05;98896.75;;;27.72;48.53
28588;BME280;15787;49.662;10.162;2022-07-29T08:03:33;98888.72;;;27.70;48.82
28588;BME280;15787;49.662;10.162;2022-07-29T08:06:03;98885.16;;;27.90;48.44
28588;BME280;15787;49.662;10.162;2022-07-29T08:08:31;98884.81;;;28.07;49.31
28588;BME280;15787;49.662;10.162;2022-07-29T08:10:59;98896.13;;;28.26;49.53
28588;BME280;15787;49.662;10.162;2022-07-29T08:13:35;98888.94;;;28.66;48.93
28588;BME280;15787;49.662;10.162;2022-07-29T08:16:03;98884.97;;;28.69;47.75
28588;BME280;15787;49.662;10.162;2022-07-29T08:18:39;98891.44;;;28.49;47.74
28588;BME280;15787;49.662;10.162;2022-07-29T08:21:09;98886.25;;;27.87;48.97
28588;BME280;15787;49.662;10.162;2022-07-29T08:23:42;98881.97;;;27.81;49.00
28588;BME280;15787;49.662;10.162;2022-07-29T08:26:24;98888.00;;;28.16;48.51
28588;BME280;15787;49.662;10.162;2022-07-29T08:28:52;98889.88;;;28.14;48.96
28588;BME280;15787;49.662;10.162;2022-07-29T08:31:20;98884.34;;;28.16;48.19
28588;BME280;15787;49.662;10.162;2022-07-29T08:33:48;98891.09;;;28.52;48.09
28588;BME280;15787;49.662;10.162;2022-07-29T08:36:17;98885.47;;;28.13;49.57
28588;BME280;15787;49.662;10.162;2022-07-29T08:38:47;98888.06;;;28.58;48.89
28588;BME280;15787;49.662;10.162;2022-07-29T08:41:16;98883.56;;;28.83;47.62
28588;BME280;15787;49.662;10.162;2022-07-29T08:43:45;98889.63;;;28.25;48.67
28588;BME280;15787;49.662;10.162;2022-07-29T08:46:13;98889.13;;;27.87;49.41
28588;BME280;15787;49.662;10.162;2022-07-29T08:48:41;98890.28;;;28.31;48.75
28588;BME280;15787;49.662;10.162;2022-07-29T08:51:13;98883.75;;;28.31;48.43
28588;BME280;15787;49.662;10.162;2022-07-29T08:53:44;98876.84;;;28.80;47.31
28588;BME280;15787;49.662;10.162;2022-07-29T08:56:14;98887.56;;;28.80;47.58
28588;BME280;15787;49.662;10.162;2022-07-29T08:58:43;98881.81;;;28.80;47.62
28588;BME280;15787;49.662;10.162;2022-07-29T09:01:21;98879.91;;;28.62;48.64
28588;BME280;15787;49.662;10.162;2022-07-29T09:04:10;98885.22;;;28.78;48.40
28588;BME280;15787;49.662;10.162;2022-07-29T09:06:42;98874.13;;;28.41;48.10
28588;BME280;15787;49.662;10.162;2022-07-29T09:09:13;98881.31;;;28.89;47.75
28588;BME280;15787;49.662;10.162;2022-07-29T09:11:42;98881.75;;;29.42;47.40
28588;BME280;15787;49.662;10.162;2022-07-29T09:14:12;98873.25;;;29.08;47.53
28588;BME280;15787;49.662;10.162;2022-07-29T09:16:45;98885.84;;;29.47;46.81
28588;BME280;15787;49.662;10.162;2022-07-29T09:19:21;98881.88;;;29.29;47.08
28588;BME280;15787;49.662;10.162;2022-07-29T09:21:49;98883.50;;;28.75;48.95
28588;BME280;15787;49.662;10.162;2022-07-29T09:24:45;98879.59;;;29.35;47.04
28588;BME280;15787;49.662;10.162;2022-07-29T09:27:21;98883.91;;;30.21;46.26
28588;BME280;15787;49.662;10.162;2022-07-29T09:29:56;98875.75;;;30.40;45.60
28588;BME280;15787;49.662;10.162;2022-07-29T09:32:25;98876.38;;;30.46;46.11
28588;BME280;15787;49.662;10.162;2022-07-29T09:35:19;98869.69;;;30.66;45.60
28588;BME280;15787;49.662;10.162;2022-07-29T09:37:47;98877.97;;;31.07;44.05
28588;BME280;15787;49.662;10.162;2022-07-29T09:40:18;98868.59;;;31.14;45.01
28588;BME280;15787;49.662;10.162;2022-07-29T09:42:47;98867.56;;;31.65;44.63
28588;BME280;15787;49.662;10.162;2022-07-29T09:45:26;98864.47;;;32.25;43.81
28588;BME280;15787;49.662;10.162;2022-07-29T09:47:54;98865.56;;;32.37;43.77
28588;BME280;15787;49.662;10.162;2022-07-29T09:50:35;98868.78;;;32.09;43.34
28588;BME280;15787;49.662;10.162;2022-07-29T09:53:03;98862.22;;;31.46;43.98
28588;BME280;15787;49.662;10.162;2022-07-29T09:55:32;98867.94;;;32.24;41.97
28588;BME280;15787;49.662;10.162;2022-07-29T09:58:17;98869.97;;;31.91;42.49
28588;BME280;15787;49.662;10.162;2022-07-29T10:00:46;98861.41;;;32.23;42.89
28588;BME280;15787;49.662;10.162;2022-07-29T10:03:15;98866.34;;;31.83;43.13
28588;BME280;15787;49.662;10.162;2022-07-29T10:05:44;98865.47;;;31.27;43.55
28588;BME280;15787;49.662;10.162;2022-07-29T10:08:12;98858.63;;;31.93;42.84
28588;BME280;15787;49.662;10.162;2022-07-29T10:10:42;98846.69;;;31.89;42.67
28588;BME280;15787;49.662;10.162;2022-07-29T10:13:12;98854.38;;;32.02;42.96
28588;BME280;15787;49.662;10.162;2022-07-29T10:15:44;98850.75;;;31.78;43.90
28588;BME280;15787;49.662;10.162;2022-07-29T10:18:14;98852.06;;;32.00;43.47
28588;BME280;15787;49.662;10.162;2022-07-29T10:20:44;98849.91;;;31.23;43.62
28588;BME280;15787;49.662;10.162;2022-07-29T10:23:12;98839.78;;;31.84;43.47
28588;BME280;15787;49.662;10.162;2022-07-29T10:25:41;98840.88;;;32.44;42.39
28588;BME280;15787;49.662;10.162;2022-07-29T10:28:12;98841.97;;;32.48;42.11
28588;BME280;15787;49.662;10.162;2022-07-29T10:30:43;98834.25;;;33.08;40.71
28588;BME280;15787;49.662;10.162;2022-07-29T10:33:29;98835.25;;;31.59;42.36
28588;BME280;15787;49.662;10.162;2022-07-29T10:36:18;98833.94;;;32.72;42.15
28588;BME280;15787;49.662;10.162;2022-07-29T10:38:55;98837.97;;;32.44;42.10
28588;BME280;15787;49.662;10.162;2022-07-29T10:41:56;98826.78;;;31.53;42.72
28588;BME280;15787;49.662;10.162;2022-07-29T10:44:29;98820.31;;;30.92;43.90
28588;BME280;15787;49.662;10.162;2022-07-29T10:46:58;98831.06;;;31.30;43.00
28588;BME280;15787;49.662;10.162;2022-07-29T10:49:27;98824.63;;;32.24;42.50
28588;BME280;15787;49.662;10.162;2022-07-29T10:52:03;98828.75;;;33.20;40.97
28588;BME280;15787;49.662;10.162;2022-07-29T10:54:43;98815.88;;;33.13;41.46
28588;BME280;15787;49.662;10.162;2022-07-29T10:57:21;98830.75;;;33.86;40.26
28588;BME280;15787;49.662;10.162;2022-07-29T11:00:28;98825.72;;;33.69;39.78
28588;BME280;15787;49.662;10.162;2022-07-29T11:02:56;98821.72;;;33.47;40.54
28588;BME280;15787;49.662;10.162;2022-07-29T11:05:25;98816.00;;;33.23;40.30
28588;BME280;15787;49.662;10.162;2022-07-29T11:08:20;98808.53;;;33.71;39.81
28588;BME280;15787;49.662;10.162;2022-07-29T11:11:29;98803.88;;;33.58;40.15
28588;BME280;15787;49.662;10.162;2022-07-29T11:13:51;98804.03;;;33.60;39.79
28588;BME280;15787;49.662;10.162;2022-07-29T11:16:22;98811.53;;;34.51;40.17
28588;BME280;15787;49.662;10.162;2022-07-29T11:19:22;98810.16;;;34.25;39.75
28588;BME280;15787;49.662;10.162;2022-07-29T11:21:56;98811.25;;;34.30;39.68
28588;BME280;15787;49.662;10.162;2022-07-29T11:24:25;98807.06;;;34.67;39.88
28588;BME280;15787;49.662;10.162;2022-07-29T11:27:12;98812.13;;;34.50;39.16
28588;BME280;15787;49.662;10.162;2022-07-29T11:29:54;98816.19;;;34.37;39.15
28588;BME280;15787;49.662;10.162;2022-07-29T11:32:35;98824.53;;;34.33;39.21
28588;BME280;15787;49.662;10.162;2022-07-29T11:35:14;98816.25;;;34.03;39.83
28588;BME280;15787;49.662;10.162;2022-07-29T11:37:45;98810.81;;;33.90;40.00
28588;BME280;15787;49.662;10.162;2022-07-29T11:40:23;98806.78;;;34.02;40.58
28588;BME280;15787;49.662;10.162;2022-07-29T11:42:51;98798.81;;;33.25;41.18
28588;BME280;15787;49.662;10.162;2022-07-29T11:45:26;98801.47;;;33.64;40.91
28588;BME280;15787;49.662;10.162;2022-07-29T11:48:16;98791.09;;;32.78;41.74
28588;BME280;15787;49.662;10.162;2022-07-29T11:50:58;98785.09;;;33.77;40.27
28588;BME280;15787;49.662;10.162;2022-07-29T11:53:26;98775.41;;;34.35;39.99
28588;BME280;15787;49.662;10.162;2022-07-29T11:55:59;98787.91;;;34.55;39.40
28588;BME280;15787;49.662;10.162;2022-07-29T11:58:48;98789.78;;;34.06;39.51
28588;BME280;15787;49.662;10.162;2022-07-29T12:01:17;98793.78;;;33.94;40.33
28588;BME280;15787;49.662;10.162;2022-07-29T12:03:45;98787.25;;;33.59;40.47
28588;BME280;15787;49.662;10.162;2022-07-29T12:06:14;98783.59;;;34.19;40.14
28588;BME280;15787;49.662;10.162;2022-07-29T12:08:46;98783.63;;;34.56;40.20
28588;BME280;15787;49.662;10.162;2022-07-29T12:11:15;98784.16;;;35.08;39.68
28588;BME280;15787;49.662;10.162;2022-07-29T12:13:47;98781.75;;;35.23;39.23
28588;BME280;15787;49.662;10.162;2022-07-29T12:16:15;98778.97;;;35.06;38.34
28588;BME280;15787;49.662;10.162;2022-07-29T12:18:57;98768.91;;;34.44;39.29
28588;BME280;15787;49.662;10.162;2022-07-29T12:21:25;98760.06;;;34.78;39.12
28588;BME280;15787;49.662;10.162;2022-07-29T12:23:55;98761.03;;;34.54;39.47
28588;BME280;15787;49.662;10.162;2022-07-29T12:26:32;98776.41;;;34.20;39.87
28588;BME280;15787;49.662;10.162;2022-07-29T12:29:01;98774.38;;;33.52;40.12
28588;BME280;15787;49.662;10.162;2022-07-29T12:31:31;98772.19;;;33.43;41.11
28588;BME280;15787;49.662;10.162;2022-07-29T12:34:11;98774.34;;;34.57;39.39
28588;BME280;15787;49.662;10.162;2022-07-29T12:36:40;98774.63;;;33.81;39.78
28588;BME280;15787;49.662;10.162;2022-07-29T12:39:09;98764.50;;;33.38;40.48
28588;BME280;15787;49.662;10.162;2022-07-29T12:41:38;98770.06;;;33.02;40.77
28588;BME280;15787;49.662;10.162;2022-07-29T12:44:06;98761.09;;;33.15;41.32
28588;BME280;15787;49.662;10.162;2022-07-29T12:46:34;98754.69;;;33.34;41.31
28588;BME280;15787;49.662;10.162;2022-07-29T12:49:05;98760.31;;;32.73;42.09
28588;BME280;15787;49.662;10.162;2022-07-29T12:51:36;98761.53;;;32.87;41.64
28588;BME280;15787;49.662;10.162;2022-07-29T12:54:08;98768.00;;;33.71;40.63
28588;BME280;15787;49.662;10.162;2022-07-29T12:56:37;98781.84;;;33.90;40.20
28588;BME280;15787;49.662;10.162;2022-07-29T12:59:15;98782.03;;;33.75;40.99
28588;BME280;15787;49.662;10.162;2022-07-29T13:01:43;98774.22;;;34.65;40.19
28588;BME280;15787;49.662;10.162;2022-07-29T13:04:24;98768.22;;;34.99;39.70
28588;BME280;15787;49.662;10.162;2022-07-29T13:07:00;98757.59;;;33.51;41.74
28588;BME280;15787;49.662;10.162;2022-07-29T13:09:37;98757.56;;;32.50;42.60
28588;BME280;15787;49.662;10.162;2022-07-29T13:12:06;98753.00;;;33.14;42.70
28588;BME280;15787;49.662;10.162;2022-07-29T13:14:37;98751.66;;;33.32;41.97